Time;durP1;ratioP1;P1;durP2;ratioP2;P2;SDS_P1;SDS_P2;PMS_P1;PMS_P2;Temp;Humidity;BMP_temperature;BMP_pressure;BME280_temperature;BME280_humidity;BME280_pressure;Samples;Min_cycle;Max_cycle;Signal;HPM_P1;HPM_P2
2022/05/25 00:02:25;;;;;;;1.40;1.30;;;;;;;;;;4975592;28;20190;-74
2022/05/25 00:04:51;;;;;;;2.27;1.20;;;;;;;;;;4991621;28;20243;-74
2022/05/25 00:07:18;;;;;;;3.23;1.47;;;;;;;;;;4991685;28;20234;-75
2022/05/25 00:09:44;;;;;;;1.00;0.90;;;;;;;;;;4992950;28;20539;-75
2022/05/25 00:12:11;;;;;;;1.60;1.50;;;;;;;;;;4975355;28;20184;-75
2022/05/25 00:14:37;;;;;;;3.20;1.27;;;;;;;;;;4991713;28;20297;-75
2022/05/25 00:17:04;;;;;;;1.50;1.40;;;;;;;;;;4992777;28;20180;-75
2022/05/25 00:22:14;;;;;;;2.87;1.10;;;;;;;;;;4992718;28;20186;-75
2022/05/25 00:24:40;;;;;;;2.30;1.20;;;;;;;;;;4991354;28;20698;-75
2022/05/25 00:27:06;;;;;;;3.50;1.33;;;;;;;;;;4992915;28;20207;-75
2022/05/25 00:29:33;;;;;;;2.83;1.20;;;;;;;;;;4991480;28;20248;-74
2022/05/25 00:31:59;;;;;;;3.37;1.20;;;;;;;;;;4975582;28;20176;-75
2022/05/25 00:34:25;;;;;;;1.43;1.33;;;;;;;;;;4991433;28;20278;-74
2022/05/25 00:36:51;;;;;;;1.47;1.30;;;;;;;;;;4975412;28;20183;-75
2022/05/25 00:39:18;;;;;;;2.43;1.43;;;;;;;;;;4991643;28;20219;-75
2022/05/25 00:41:44;;;;;;;1.30;1.20;;;;;;;;;;4992456;28;20180;-75
2022/05/25 00:44:10;;;;;;;1.20;1.10;;;;;;;;;;4991292;28;20195;-75
2022/05/25 00:46:37;;;;;;;1.30;1.20;;;;;;;;;;4975206;28;20210;-74
2022/05/25 00:49:11;;;;;;;1.87;1.10;;;;;;;;;;4975245;28;20182;-75
2022/05/25 00:51:45;;;;;;;2.73;1.23;;;;;;;;;;4992486;28;20172;-75
2022/05/25 00:54:14;;;;;;;1.57;1.10;;;;;;;;;;4994874;28;20195;-75
2022/05/25 00:56:41;;;;;;;2.47;1.40;;;;;;;;;;4995105;28;20189;-74
2022/05/25 00:59:18;;;;;;;2.97;1.13;;;;;;;;;;4996218;28;20226;-74
2022/05/25 01:01:44;;;;;;;1.73;1.40;;;;;;;;;;4996154;28;20178;-74
2022/05/25 01:04:11;;;;;;;1.77;1.27;;;;;;;;;;4978772;28;20618;-74
2022/05/25 01:06:43;;;;;;;1.67;1.27;;;;;;;;;;4996461;28;20200;-75
2022/05/25 01:09:09;;;;;;;2.30;1.30;;;;;;;;;;4996135;28;20176;-75
2022/05/25 01:11:38;;;;;;;1.93;1.20;;;;;;;;;;4994892;28;20696;-75
2022/05/25 01:14:23;;;;;;;1.40;1.20;;;;;;;;;;4996197;28;20195;-74
2022/05/25 01:16:49;;;;;;;1.20;1.10;;;;;;;;;;4994738;28;20669;-75
2022/05/25 01:19:18;;;;;;;3.33;1.40;;;;;;;;;;4994554;28;20179;-75
2022/05/25 01:21:53;;;;;;;1.30;1.20;;;;;;;;;;4994542;28;20207;-74
2022/05/25 01:24:25;;;;;;;1.20;1.10;;;;;;;;;;4994486;28;20217;-75
2022/05/25 01:26:54;;;;;;;1.30;1.20;;;;;;;;;;4994413;28;20208;-74
2022/05/25 01:29:35;;;;;;;1.63;1.10;;;;;;;;;;4994608;28;20630;-75
2022/05/25 01:32:07;;;;;;;3.07;1.13;;;;;;;;;;4994268;28;20214;-75
2022/05/25 01:34:49;;;;;;;1.23;1.13;;;;;;;;;;4995597;28;20192;-74
2022/05/25 01:37:17;;;;;;;2.17;1.13;;;;;;;;;;4994302;28;20205;-75
2022/05/25 01:39:53;;;;;;;1.47;1.33;;;;;;;;;;4995535;28;20183;-75
2022/05/25 01:42:23;;;;;;;2.10;1.20;;;;;;;;;;4994063;28;20191;-74
2022/05/25 01:44:52;;;;;;;2.10;1.20;;;;;;;;;;4994133;28;20215;-75
2022/05/25 01:47:19;;;;;;;1.40;1.30;;;;;;;;;;4995386;28;20209;-75
2022/05/25 01:49:49;;;;;;;1.50;1.10;;;;;;;;;;4994072;28;20194;-75
2022/05/25 01:52:18;;;;;;;1.33;1.23;;;;;;;;;;4994153;28;20171;-74
2022/05/25 01:54:50;;;;;;;1.93;1.33;;;;;;;;;;4994018;28;20225;-74
2022/05/25 01:57:16;;;;;;;1.37;1.27;;;;;;;;;;4978088;28;20184;-75
2022/05/25 01:59:43;;;;;;;1.10;1.00;;;;;;;;;;4993856;28;20396;-74
2022/05/25 02:04:56;;;;;;;1.33;1.23;;;;;;;;;;4994075;28;20265;-74
2022/05/25 02:07:36;;;;;;;2.73;1.30;;;;;;;;;;4993556;28;20211;-74
2022/05/25 02:10:15;;;;;;;1.33;1.23;;;;;;;;;;4994925;28;20172;-75
2022/05/25 02:12:50;;;;;;;1.67;1.20;;;;;;;;;;4993465;28;20177;-75
2022/05/25 02:15:41;;;;;;;1.90;1.40;;;;;;;;;;4993713;28;20200;-74
2022/05/25 02:18:19;;;;;;;4.40;1.30;;;;;;;;;;4993623;28;20180;-75
2022/05/25 02:20:52;;;;;;;1.10;1.00;;;;;;;;;;4993692;28;20635;-75
2022/05/25 02:23:31;;;;;;;2.17;1.30;;;;;;;;;;4993332;28;20176;-75
2022/05/25 02:25:59;;;;;;;1.53;1.20;;;;;;;;;;4994746;28;20686;-74
2022/05/25 02:28:27;;;;;;;3.00;1.20;;;;;;;;;;4993491;28;20207;-75
2022/05/25 02:30:56;;;;;;;2.10;1.13;;;;;;;;;;4977333;28;20241;-74
2022/05/25 02:33:27;;;;;;;1.30;1.20;;;;;;;;;;4993284;28;20176;-74
2022/05/25 02:35:54;;;;;;;2.63;1.50;;;;;;;;;;4993163;28;20682;-74
2022/05/25 02:38:20;;;;;;;2.10;1.20;;;;;;;;;;4993472;28;20267;-74
2022/05/25 02:40:46;;;;;;;1.17;1.00;;;;;;;;;;4977078;28;20679;-74
2022/05/25 02:43:12;;;;;;;1.20;1.10;;;;;;;;;;4994100;28;20737;-75
2022/05/25 02:45:39;;;;;;;1.20;1.10;;;;;;;;;;4976925;28;20298;-74
2022/05/25 02:48:05;;;;;;;1.17;1.03;;;;;;;;;;4993009;28;20171;-74
2022/05/25 02:50:31;;;;;;;1.80;1.20;;;;;;;;;;4992813;28;20290;-74
2022/05/25 02:52:57;;;;;;;1.53;1.17;;;;;;;;;;4976773;28;20628;-74
2022/05/25 02:55:24;;;;;;;1.30;1.20;;;;;;;;;;4976820;28;20230;-75
2022/05/25 02:57:50;;;;;;;1.67;1.00;;;;;;;;;;4992725;28;20182;-74
2022/05/25 03:00:16;;;;;;;1.20;1.10;;;;;;;;;;4992795;28;20179;-74
2022/05/25 03:02:42;;;;;;;1.03;1.00;;;;;;;;;;4992520;28;20179;-74
2022/05/25 03:05:09;;;;;;;1.10;1.00;;;;;;;;;;4992829;28;20245;-74
2022/05/25 03:07:35;;;;;;;1.97;1.10;;;;;;;;;;4976496;28;20298;-74
2022/05/25 03:10:02;;;;;;;1.73;1.23;;;;;;;;;;4993928;28;20175;-74
2022/05/25 03:12:28;;;;;;;1.77;1.30;;;;;;;;;;4992337;28;20176;-74
2022/05/25 03:14:54;;;;;;;1.73;1.10;;;;;;;;;;4992246;28;20341;-74
2022/05/25 03:17:20;;;;;;;1.20;1.10;;;;;;;;;;4976148;28;20646;-74
2022/05/25 03:19:54;;;;;;;1.87;1.10;;;;;;;;;;4976776;28;20171;-74
2022/05/25 03:22:20;;;;;;;2.53;0.90;;;;;;;;;;4992153;28;20613;-74
2022/05/25 03:24:46;;;;;;;1.70;1.10;;;;;;;;;;5016743;22;20289;-74
2022/05/25 03:27:12;;;;;;;0.90;0.90;;;;;;;;;;4992208;28;20218;-74
2022/05/25 03:29:38;;;;;;;2.03;1.10;;;;;;;;;;4993597;28;20176;-74
2022/05/25 03:32:05;;;;;;;3.03;1.10;;;;;;;;;;4992020;28;20180;-74
2022/05/25 03:34:32;;;;;;;1.57;1.23;;;;;;;;;;4992161;28;20187;-74
2022/05/25 03:36:58;;;;;;;1.30;1.10;;;;;;;;;;4992374;28;20179;-74
2022/05/25 03:39:26;;;;;;;2.37;1.10;;;;;;;;;;4992201;28;20270;-74
2022/05/25 03:41:53;;;;;;;1.10;1.00;;;;;;;;;;4991875;28;20234;-74
2022/05/25 03:44:20;;;;;;;1.27;1.10;;;;;;;;;;4992025;28;20287;-74
2022/05/25 03:46:46;;;;;;;2.00;1.27;;;;;;;;;;4975837;28;20760;-75
2022/05/25 03:49:12;;;;;;;1.30;1.20;;;;;;;;;;4975880;28;20270;-74
2022/05/25 03:51:38;;;;;;;3.67;1.20;;;;;;;;;;4975844;28;20188;-74
2022/05/25 03:54:04;;;;;;;1.30;1.20;;;;;;;;;;4975493;28;20184;-74
2022/05/25 03:56:30;;;;;;;1.20;1.10;;;;;;;;;;4975682;28;20278;-74
2022/05/25 03:58:56;;;;;;;1.97;1.20;;;;;;;;;;4975671;28;20273;-74
2022/05/25 04:01:22;;;;;;;1.80;1.07;;;;;;;;;;4975628;28;20241;-74
2022/05/25 04:03:48;;;;;;;2.97;1.33;;;;;;;;;;4991649;28;20693;-74
2022/05/25 04:06:14;;;;;;;1.30;1.20;;;;;;;;;;4992868;28;20203;-74
2022/05/25 04:08:40;;;;;;;2.00;1.30;;;;;;;;;;4975653;28;20191;-74
2022/05/25 04:11:06;;;;;;;1.63;1.40;;;;;;;;;;4975778;28;20176;-74
2022/05/25 04:13:32;;;;;;;4.33;1.53;;;;;;;;;;4975624;28;20209;-74
2022/05/25 04:15:58;;;;;;;2.30;1.40;;;;;;;;;;4975445;28;20215;-74
2022/05/25 04:18:24;;;;;;;1.50;1.40;;;;;;;;;;4991446;28;20335;-74
2022/05/25 04:20:50;;;;;;;1.53;1.33;;;;;;;;;;4991761;28;20631;-74
2022/05/25 04:23:16;;;;;;;1.60;1.50;;;;;;;;;;4991425;28;20697;-74
2022/05/25 04:25:42;;;;;;;2.43;1.67;;;;;;;;;;4975173;28;20358;-74
2022/05/25 04:28:08;;;;;;;2.10;1.37;;;;;;;;;;4977300;28;20176;-74
2022/05/25 04:30:34;;;;;;;2.47;1.73;;;;;;;;;;4979644;28;20182;-74
2022/05/25 04:33:01;;;;;;;2.30;1.60;;;;;;;;;;4995596;28;20243;-74
2022/05/25 04:35:27;;;;;;;2.63;1.60;;;;;;;;;;4995618;28;20286;-74
2022/05/25 04:37:54;;;;;;;2.07;1.30;;;;;;;;;;4995266;28;20175;-74
2022/05/25 04:40:25;;;;;;;1.97;1.40;;;;;;;;;;4995415;28;20179;-74
2022/05/25 04:42:51;;;;;;;3.57;1.60;;;;;;;;;;4995239;28;20175;-74
2022/05/25 04:45:17;;;;;;;2.40;1.70;;;;;;;;;;4995522;28;20230;-74
2022/05/25 04:47:43;;;;;;;1.53;1.30;;;;;;;;;;4996369;28;20216;-74
2022/05/25 04:50:10;;;;;;;2.03;1.60;;;;;;;;;;4979100;28;20187;-74
2022/05/25 04:52:39;;;;;;;1.70;1.60;;;;;;;;;;4995093;28;20178;-74
2022/05/25 04:55:07;;;;;;;3.00;1.40;;;;;;;;;;4995369;28;20654;-74
2022/05/25 04:57:33;;;;;;;1.40;1.30;;;;;;;;;;4994937;28;20183;-74
2022/05/25 05:00:00;;;;;;;1.40;1.30;;;;;;;;;;4994970;28;20199;-74
2022/05/25 05:02:29;;;;;;;2.57;1.33;;;;;;;;;;4995050;28;20184;-74
2022/05/25 05:04:56;;;;;;;1.50;1.10;;;;;;;;;;4994769;28;20200;-74
2022/05/25 05:07:32;;;;;;;2.80;1.40;;;;;;;;;;4994968;28;20211;-74
2022/05/25 05:09:58;;;;;;;1.73;1.37;;;;;;;;;;4979831;28;20184;-74
2022/05/25 05:12:24;;;;;;;2.53;1.40;;;;;;;;;;4979212;28;20175;-74
2022/05/25 05:14:50;;;;;;;1.53;1.10;;;;;;;;;;4978662;28;20211;-74
2022/05/25 05:17:16;;;;;;;1.50;1.20;;;;;;;;;;4994650;28;20669;-74
2022/05/25 05:19:42;;;;;;;1.73;1.47;;;;;;;;;;4996061;28;20211;-74
2022/05/25 05:22:08;;;;;;;1.53;1.30;;;;;;;;;;4978334;28;20222;-74
2022/05/25 05:24:34;;;;;;;2.03;1.40;;;;;;;;;;4978226;28;20579;-74
2022/05/25 05:27:00;;;;;;;1.60;1.50;;;;;;;;;;4978580;28;20215;-75
2022/05/25 05:29:30;;;;;;;3.17;1.40;;;;;;;;;;4994800;28;20570;-74
2022/05/25 05:31:56;;;;;;;3.93;1.40;;;;;;;;;;4978856;28;20186;-74
2022/05/25 05:34:22;;;;;;;1.30;1.20;;;;;;;;;;4994372;28;20227;-74
2022/05/25 05:36:54;;;;;;;2.23;1.40;;;;;;;;;;4978345;28;20215;-74
2022/05/25 05:39:21;;;;;;;4.30;1.70;;;;;;;;;;4994321;28;20270;-75
2022/05/25 05:41:47;;;;;;;2.57;1.70;;;;;;;;;;4994157;28;20187;-74
2022/05/25 05:44:15;;;;;;;2.63;1.60;;;;;;;;;;4994132;28;20200;-74
2022/05/25 05:46:42;;;;;;;4.37;1.80;;;;;;;;;;4994284;28;20287;-74
2022/05/25 05:49:12;;;;;;;2.40;1.80;;;;;;;;;;4978150;28;20176;-74
2022/05/25 05:51:38;;;;;;;3.20;1.80;;;;;;;;;;4977883;28;20242;-74
2022/05/25 05:54:05;;;;;;;2.13;1.70;;;;;;;;;;4993733;28;20194;-74
2022/05/25 05:56:34;;;;;;;2.00;1.80;;;;;;;;;;4994164;28;20278;-74
2022/05/25 05:59:00;;;;;;;1.83;1.70;;;;;;;;;;4993991;28;20180;-74
2022/05/25 06:01:26;;;;;;;2.30;1.80;;;;;;;;;;4977902;28;20179;-74
2022/05/25 06:03:52;;;;;;;3.77;1.70;;;;;;;;;;4994859;28;20236;-75
2022/05/25 06:06:18;;;;;;;2.60;1.50;;;;;;;;;;4993654;28;20199;-74
2022/05/25 06:08:46;;;;;;;1.87;1.43;;;;;;;;;;4977697;28;20188;-74
2022/05/25 06:11:19;;;;;;;2.07;1.50;;;;;;;;;;4993766;28;20264;-74
2022/05/25 06:13:46;;;;;;;2.07;1.10;;;;;;;;;;4994806;28;20227;-74
2022/05/25 06:21:41;;;;;;;2.40;1.50;;;;;;;;;;4994999;28;20275;-74
2022/05/25 06:24:07;;;;;;;2.20;1.47;;;;;;;;;;4977021;28;20279;-74
2022/05/25 06:26:33;;;;;;;2.10;1.50;;;;;;;;;;4993510;28;20210;-74
2022/05/25 06:29:00;;;;;;;1.70;1.60;;;;;;;;;;4993318;28;20179;-74
2022/05/25 06:31:26;;;;;;;2.87;1.60;;;;;;;;;;4993362;28;20199;-74
2022/05/25 06:33:52;;;;;;;1.83;1.70;;;;;;;;;;4993334;28;20270;-74
2022/05/25 06:36:20;;;;;;;1.80;1.67;;;;;;;;;;4977119;28;20275;-74
2022/05/25 06:38:46;;;;;;;2.87;1.60;;;;;;;;;;4993271;28;20642;-74
2022/05/25 06:41:13;;;;;;;3.47;1.70;;;;;;;;;;4993195;28;20207;-74
2022/05/25 06:43:38;;;;;;;2.13;1.57;;;;;;;;;;4992863;28;20188;-74
2022/05/25 06:46:05;;;;;;;2.60;1.73;;;;;;;;;;4977118;28;20218;-74
2022/05/25 06:48:31;;;;;;;2.77;1.70;;;;;;;;;;4993223;28;20234;-74
2022/05/25 06:50:57;;;;;;;3.17;1.60;;;;;;;;;;4992255;28;20175;-74
2022/05/25 06:53:23;;;;;;;2.17;1.57;;;;;;;;;;4976662;28;20187;-74
2022/05/25 06:55:49;;;;;;;1.87;1.60;;;;;;;;;;4992904;28;20196;-74
2022/05/25 06:58:15;;;;;;;1.90;1.50;;;;;;;;;;4976690;28;20183;-74
2022/05/25 07:00:42;;;;;;;2.07;1.43;;;;;;;;;;4992862;28;20326;-74
2022/05/25 07:03:08;;;;;;;3.77;1.73;;;;;;;;;;4993747;28;20539;-74
2022/05/25 07:05:34;;;;;;;1.80;1.60;;;;;;;;;;4992551;28;20199;-74
2022/05/25 07:08:00;;;;;;;2.07;1.60;;;;;;;;;;4992749;28;20172;-74
2022/05/25 07:10:26;;;;;;;1.63;1.50;;;;;;;;;;4992768;28;20586;-74
2022/05/25 07:12:52;;;;;;;4.30;1.40;;;;;;;;;;4976240;28;20279;-74
2022/05/25 07:15:18;;;;;;;1.90;1.27;;;;;;;;;;4976315;28;20290;-74
2022/05/25 07:17:47;;;;;;;1.50;1.33;;;;;;;;;;4992303;28;20271;-74
2022/05/25 07:20:13;;;;;;;1.97;1.30;;;;;;;;;;4992638;28;20176;-74
2022/05/25 07:22:40;;;;;;;1.30;1.20;;;;;;;;;;4992447;28;20635;-74
2022/05/25 07:25:06;;;;;;;1.53;1.37;;;;;;;;;;4976253;28;20678;-74
2022/05/25 07:27:32;;;;;;;3.53;1.40;;;;;;;;;;4976112;28;20234;-74
2022/05/25 07:29:58;;;;;;;2.97;1.30;;;;;;;;;;4976368;28;20214;-74
2022/05/25 07:32:25;;;;;;;1.30;1.20;;;;;;;;;;4992092;28;20644;-74
2022/05/25 07:34:57;;;;;;;1.30;1.20;;;;;;;;;;4992075;28;20662;-74
2022/05/25 07:37:24;;;;;;;2.03;1.40;;;;;;;;;;4993432;28;20206;-74
2022/05/25 07:39:50;;;;;;;1.80;1.30;;;;;;;;;;4992123;28;20184;-75
2022/05/25 07:42:18;;;;;;;1.50;1.30;;;;;;;;;;4991905;28;20213;-75
2022/05/25 07:44:46;;;;;;;1.43;1.33;;;;;;;;;;4991957;28;20195;-75
2022/05/25 07:47:13;;;;;;;2.17;1.50;;;;;;;;;;4993235;28;20200;-75
2022/05/25 07:49:39;;;;;;;3.00;1.50;;;;;;;;;;4992009;28;20172;-75
2022/05/25 07:52:05;;;;;;;2.33;1.30;;;;;;;;;;4992888;28;20171;-75
2022/05/25 07:54:32;;;;;;;2.53;1.47;;;;;;;;;;4992151;28;20191;-75
2022/05/25 07:56:59;;;;;;;2.57;1.37;;;;;;;;;;4976024;28;20188;-75
2022/05/25 07:59:25;;;;;;;2.70;1.30;;;;;;;;;;4976082;28;20229;-75
2022/05/25 08:07:34;;;;;;;2.20;1.30;;;;;;;;;;4993021;28;20222;-75
2022/05/25 08:10:09;;;;;;;1.57;1.23;;;;;;;;;;4975627;28;20188;-76
2022/05/25 08:12:37;;;;;;;3.33;1.30;;;;;;;;;;4992781;28;20179;-75
2022/05/25 08:15:03;;;;;;;1.30;1.20;;;;;;;;;;4991589;28;20724;-75
2022/05/25 08:17:29;;;;;;;1.73;1.40;;;;;;;;;;4975107;28;20171;-75
2022/05/25 08:19:55;;;;;;;1.40;1.00;;;;;;;;;;4975814;28;20587;-75
2022/05/25 08:22:21;;;;;;;2.37;1.10;;;;;;;;;;4975464;28;20187;-75
2022/05/25 08:24:47;;;;;;;1.23;1.10;;;;;;;;;;4991553;28;20243;-75
2022/05/25 08:27:13;;;;;;;1.07;0.90;;;;;;;;;;4991585;28;20311;-75
2022/05/25 08:29:39;;;;;;;1.13;0.97;;;;;;;;;;4975549;28;20179;-75
2022/05/25 08:32:05;;;;;;;0.70;0.70;;;;;;;;;;4975131;28;20271;-75
2022/05/25 08:34:31;;;;;;;2.90;0.77;;;;;;;;;;4975448;28;20279;-75
2022/05/25 08:36:58;;;;;;;2.03;1.20;;;;;;;;;;4991445;28;20180;-75
2022/05/25 08:39:24;;;;;;;2.77;1.37;;;;;;;;;;4991559;28;20190;-75
2022/05/25 08:41:52;;;;;;;1.60;0.97;;;;;;;;;;4991197;28;20180;-75
2022/05/25 08:44:19;;;;;;;1.13;1.00;;;;;;;;;;4992485;28;20611;-75
2022/05/25 08:46:45;;;;;;;1.50;0.90;;;;;;;;;;4975481;28;20214;-75
2022/05/25 08:49:13;;;;;;;1.13;0.80;;;;;;;;;;4991328;28;20625;-75
2022/05/25 08:51:44;;;;;;;0.90;0.80;;;;;;;;;;4991452;28;20180;-75
2022/05/25 08:54:10;;;;;;;1.00;0.90;;;;;;;;;;4992455;28;20208;-75
2022/05/25 08:56:39;;;;;;;0.73;0.73;;;;;;;;;;4991191;28;20187;-75
2022/05/25 08:59:05;;;;;;;1.27;0.87;;;;;;;;;;4992396;28;20211;-75
2022/05/25 09:01:34;;;;;;;0.77;0.77;;;;;;;;;;4991179;28;20678;-75
2022/05/25 09:04:06;;;;;;;2.47;0.90;;;;;;;;;;4974858;28;20199;-75
2022/05/25 09:06:51;;;;;;;1.10;0.90;;;;;;;;;;4991308;28;20683;-75
2022/05/25 09:09:17;;;;;;;1.37;0.97;;;;;;;;;;4991075;28;20176;-75
2022/05/25 09:12:06;;;;;;;2.63;0.80;;;;;;;;;;4991151;28;20246;-75
2022/05/25 09:14:32;;;;;;;1.10;1.00;;;;;;;;;;4988269;28;20221;-75
2022/05/25 09:16:59;;;;;;;1.03;0.70;;;;;;;;;;4996007;28;20620;-75
2022/05/25 09:19:29;;;;;;;1.30;0.83;;;;;;;;;;4994728;28;20210;-75
2022/05/25 09:21:56;;;;;;;0.80;0.80;;;;;;;;;;4994341;28;20190;-75
2022/05/25 09:24:24;;;;;;;0.80;0.80;;;;;;;;;;5002989;22;20219;-75
2022/05/25 09:26:52;;;;;;;1.07;0.80;;;;;;;;;;4995445;28;20247;-75
2022/05/25 09:29:18;;;;;;;1.07;0.60;;;;;;;;;;4994527;28;20638;-75
2022/05/25 09:31:56;;;;;;;1.40;1.30;;;;;;;;;;4995609;28;20176;-75
2022/05/25 09:34:43;;;;;;;2.27;0.90;;;;;;;;;;4995592;28;20171;-75
2022/05/25 09:37:29;;;;;;;1.00;0.70;;;;;;;;;;4995481;28;20187;-75
2022/05/25 09:39:55;;;;;;;1.90;0.90;;;;;;;;;;4974428;28;20191;-75
2022/05/25 09:42:21;;;;;;;1.43;0.90;;;;;;;;;;4994125;28;20175;-75
2022/05/25 09:44:49;;;;;;;0.83;0.80;;;;;;;;;;4994436;28;20294;-75
2022/05/25 09:47:20;;;;;;;0.93;0.80;;;;;;;;;;4978316;28;20222;-75
2022/05/25 09:49:47;;;;;;;0.90;0.67;;;;;;;;;;4994481;28;20642;-75
2022/05/25 09:52:29;;;;;;;0.90;0.80;;;;;;;;;;4995149;28;20203;-75
2022/05/25 09:55:00;;;;;;;1.63;0.80;;;;;;;;;;4994169;28;20265;-75
2022/05/25 09:57:28;;;;;;;0.73;0.70;;;;;;;;;;4978008;28;20555;-75
2022/05/25 10:00:03;;;;;;;0.80;0.60;;;;;;;;;;4993943;28;20180;-75
2022/05/25 10:02:50;;;;;;;0.80;0.60;;;;;;;;;;4993664;28;20222;-75
2022/05/25 10:05:19;;;;;;;0.80;0.80;;;;;;;;;;4993879;28;20203;-75
2022/05/25 10:07:56;;;;;;;0.80;0.77;;;;;;;;;;4994969;28;20622;-75
2022/05/25 10:10:28;;;;;;;1.60;0.77;;;;;;;;;;4993828;28;20179;-75
2022/05/25 10:13:15;;;;;;;1.50;0.80;;;;;;;;;;4993570;28;20176;-75
2022/05/25 10:15:41;;;;;;;1.23;0.70;;;;;;;;;;4993344;28;20199;-75
2022/05/25 10:18:13;;;;;;;1.33;0.80;;;;;;;;;;4993378;28;20234;-75
2022/05/25 10:20:42;;;;;;;1.50;1.10;;;;;;;;;;4993735;28;20172;-75
2022/05/25 10:23:12;;;;;;;1.00;0.90;;;;;;;;;;4993472;28;20546;-75
2022/05/25 10:25:43;;;;;;;2.93;1.00;;;;;;;;;;4992279;28;20513;-75
2022/05/25 10:28:18;;;;;;;1.20;1.00;;;;;;;;;;4993590;28;20215;-75
2022/05/25 10:39:24;;;;;;;0.80;0.80;;;;;;;;;;4994808;28;20233;-75
2022/05/25 10:42:10;;;;;;;2.17;0.87;;;;;;;;;;4994279;28;20183;-75
2022/05/25 10:44:39;;;;;;;1.07;0.80;;;;;;;;;;4993232;28;20262;-75
2022/05/25 10:47:10;;;;;;;1.70;0.90;;;;;;;;;;4992979;28;20200;-75
2022/05/25 10:49:43;;;;;;;1.83;1.03;;;;;;;;;;4992972;28;20657;-75
2022/05/25 10:52:33;;;;;;;0.80;0.80;;;;;;;;;;4993029;28;20249;-75
2022/05/25 10:54:59;;;;;;;0.80;0.80;;;;;;;;;;4993241;28;20192;-75
2022/05/25 10:57:37;;;;;;;1.83;1.00;;;;;;;;;;4993022;28;20180;-75
2022/05/25 11:00:06;;;;;;;1.23;0.90;;;;;;;;;;4993030;28;20218;-75
2022/05/25 11:02:41;;;;;;;1.30;1.00;;;;;;;;;;4992512;28;20653;-75
2022/05/25 11:05:09;;;;;;;1.50;1.00;;;;;;;;;;4992764;28;20203;-75
2022/05/25 11:07:39;;;;;;;1.73;1.00;;;;;;;;;;4992554;28;20203;-75
2022/05/25 11:10:40;;;;;;;0.90;0.90;;;;;;;;;;4993920;28;20661;-75
2022/05/25 11:13:21;;;;;;;1.03;0.80;;;;;;;;;;4955624;28;20263;-75
2022/05/25 11:15:54;;;;;;;1.43;1.00;;;;;;;;;;4988403;28;20231;-75
2022/05/25 11:18:39;;;;;;;1.40;0.80;;;;;;;;;;4992345;28;20178;-75
2022/05/25 11:21:05;;;;;;;0.80;0.80;;;;;;;;;;4992413;28;20226;-74
2022/05/25 11:23:34;;;;;;;2.10;1.00;;;;;;;;;;4992360;28;20171;-75
2022/05/25 11:26:00;;;;;;;1.30;0.90;;;;;;;;;;4992140;28;20215;-75
2022/05/25 11:28:29;;;;;;;1.40;0.97;;;;;;;;;;4993681;28;20176;-75
2022/05/25 11:31:14;;;;;;;1.33;0.97;;;;;;;;;;4992588;28;20227;-75
2022/05/25 11:33:43;;;;;;;0.90;0.90;;;;;;;;;;4992287;28;20186;-75
2022/05/25 11:36:22;;;;;;;3.10;0.90;;;;;;;;;;4992019;28;20290;-75
2022/05/25 11:38:47;;;;;;;1.73;1.08;;;;;;;;;;4992289;28;20179;-75
2022/05/25 11:41:13;;;;;;;1.02;0.80;;;;;;;;;;4992180;28;20245;-75
2022/05/25 11:43:58;;;;;;;0.95;0.80;;;;;;;;;;4991745;28;20183;-75
2022/05/25 11:46:30;;;;;;;0.90;0.82;;;;;;;;;;4991923;28;20226;-75
2022/05/25 11:49:05;;;;;;;2.78;1.08;;;;;;;;;;4992177;28;20203;-75
2022/05/25 11:51:38;;;;;;;1.65;1.00;;;;;;;;;;4991912;28;20250;-75
2022/05/25 11:54:24;;;;;;;2.60;1.00;;;;;;;;;;4991669;28;20195;-75
2022/05/25 11:57:08;;;;;;;2.10;1.10;;;;;;;;;;4991907;28;20262;-75
2022/05/25 11:59:37;;;;;;;1.52;0.90;;;;;;;;;;4993319;28;20630;-75
2022/05/25 12:02:14;;;;;;;1.50;1.13;;;;;;;;;;4991661;28;20206;-75
2022/05/25 12:04:58;;;;;;;1.33;0.98;;;;;;;;;;4991829;28;20230;-75
2022/05/25 12:07:27;;;;;;;3.05;1.20;;;;;;;;;;4991671;28;20211;-75
2022/05/25 12:09:54;;;;;;;1.60;1.05;;;;;;;;;;4991765;28;20171;-75
2022/05/25 12:12:26;;;;;;;1.10;1.00;;;;;;;;;;4992676;28;20171;-75
2022/05/25 12:14:58;;;;;;;4.88;1.08;;;;;;;;;;4991530;28;20219;-75
2022/05/25 12:17:53;;;;;;;1.10;1.00;;;;;;;;;;4992468;28;20299;-75
2022/05/25 12:20:27;;;;;;;1.25;1.15;;;;;;;;;;4973731;28;20198;-75
2022/05/25 12:22:54;;;;;;;1.00;0.90;;;;;;;;;;4991668;28;20206;-76
2022/05/25 12:25:21;;;;;;;2.50;0.97;;;;;;;;;;4991394;28;20217;-76
2022/05/25 12:27:49;;;;;;;1.10;1.00;;;;;;;;;;4991638;28;20219;-77
2022/05/25 12:30:27;;;;;;;1.63;1.00;;;;;;;;;;4992717;28;20605;-77
2022/05/25 12:32:53;;;;;;;1.00;0.90;;;;;;;;;;4991234;28;20182;-77
2022/05/25 12:35:19;;;;;;;1.10;1.00;;;;;;;;;;4992744;28;20187;-77
2022/05/25 12:37:47;;;;;;;1.80;1.20;;;;;;;;;;4991476;28;20191;-77
2022/05/25 12:40:14;;;;;;;1.20;1.00;;;;;;;;;;4991684;28;20202;-77
2022/05/25 12:42:42;;;;;;;1.60;1.00;;;;;;;;;;4975015;28;20183;-77
2022/05/25 12:50:51;;;;;;;2.22;0.93;;;;;;;;;;4996792;28;20194;-75
2022/05/25 12:53:20;;;;;;;1.63;1.00;;;;;;;;;;4995171;28;20342;-75
2022/05/25 12:55:58;;;;;;;1.20;1.10;;;;;;;;;;4995211;28;20286;-75
2022/05/25 12:58:35;;;;;;;1.77;0.95;;;;;;;;;;4996401;28;20172;-75
2022/05/25 13:01:09;;;;;;;1.90;0.83;;;;;;;;;;4995440;28;20182;-75
2022/05/25 13:03:38;;;;;;;1.00;0.90;;;;;;;;;;4978920;28;20205;-75
2022/05/25 13:06:05;;;;;;;0.98;0.95;;;;;;;;;;4994949;28;20254;-75
2022/05/25 13:08:49;;;;;;;1.40;0.90;;;;;;;;;;4994865;28;20183;-75
2022/05/25 13:11:34;;;;;;;1.30;0.90;;;;;;;;;;4994799;28;20708;-75
2022/05/25 13:14:20;;;;;;;2.67;1.00;;;;;;;;;;4994704;28;20175;-75
2022/05/25 13:16:47;;;;;;;2.30;0.93;;;;;;;;;;4974879;28;20195;-75
2022/05/25 13:19:15;;;;;;;2.53;0.93;;;;;;;;;;4994614;28;20183;-75
2022/05/25 13:21:42;;;;;;;3.70;1.10;;;;;;;;;;4994619;28;20183;-75
2022/05/25 13:24:47;;;;;;;2.38;0.80;;;;;;;;;;4978477;28;20184;-75
2022/05/25 13:27:16;;;;;;;1.17;0.77;;;;;;;;;;4957707;28;20339;-75
2022/05/25 13:29:42;;;;;;;0.90;0.80;;;;;;;;;;4957838;28;20689;-75
2022/05/25 13:32:28;;;;;;;2.15;1.00;;;;;;;;;;4974105;28;20316;-75
2022/05/25 13:34:54;;;;;;;0.70;0.70;;;;;;;;;;4993683;28;20242;-75
2022/05/25 13:37:21;;;;;;;1.77;0.70;;;;;;;;;;4978360;28;20274;-75
2022/05/25 13:39:47;;;;;;;0.95;0.77;;;;;;;;;;4978343;28;20294;-75
2022/05/25 13:42:15;;;;;;;0.68;0.68;;;;;;;;;;4995441;28;20172;-75
2022/05/25 13:44:42;;;;;;;1.23;0.82;;;;;;;;;;4978355;28;20265;-75
2022/05/25 13:47:08;;;;;;;1.02;0.80;;;;;;;;;;4994153;28;20200;-75
2022/05/25 13:49:49;;;;;;;0.77;0.77;;;;;;;;;;4995434;28;20172;-75
2022/05/25 13:52:17;;;;;;;3.15;0.73;;;;;;;;;;4994171;28;20183;-75
2022/05/25 13:54:45;;;;;;;1.55;0.90;;;;;;;;;;4993958;28;20662;-75
2022/05/25 13:57:14;;;;;;;2.38;1.00;;;;;;;;;;4994034;28;20669;-75
2022/05/25 13:59:40;;;;;;;0.85;0.70;;;;;;;;;;4994978;28;20172;-75
2022/05/25 14:02:12;;;;;;;1.48;0.80;;;;;;;;;;4994022;28;20195;-75
2022/05/25 14:04:38;;;;;;;1.58;0.70;;;;;;;;;;4993910;28;20239;-75
2022/05/25 14:07:04;;;;;;;2.22;0.75;;;;;;;;;;4977776;28;20211;-75
2022/05/25 14:12:18;;;;;;;0.82;0.70;;;;;;;;;;4994129;28;20202;-75
2022/05/25 14:14:53;;;;;;;0.70;0.60;;;;;;;;;;4993924;28;20192;-75
2022/05/25 14:17:20;;;;;;;1.25;0.63;;;;;;;;;;4994812;28;20584;-75
2022/05/25 14:19:51;;;;;;;1.42;0.70;;;;;;;;;;4993675;28;20179;-75
2022/05/25 14:22:18;;;;;;;1.45;0.80;;;;;;;;;;4993472;28;20243;-75
2022/05/25 14:24:46;;;;;;;1.23;0.90;;;;;;;;;;4994691;28;20215;-75
2022/05/25 14:27:21;;;;;;;1.05;0.93;;;;;;;;;;4993415;28;20207;-75
2022/05/25 14:29:47;;;;;;;0.60;0.60;;;;;;;;;;4994697;28;20167;-75
2022/05/25 14:32:22;;;;;;;3.03;1.03;;;;;;;;;;4993284;28;20172;-75
2022/05/25 14:34:50;;;;;;;1.23;0.80;;;;;;;;;;4993268;28;20196;-75
2022/05/25 14:37:17;;;;;;;4.00;0.87;;;;;;;;;;4993317;28;20180;-75
2022/05/25 14:39:45;;;;;;;1.00;0.87;;;;;;;;;;4977265;28;20183;-75
2022/05/25 14:42:11;;;;;;;1.13;0.68;;;;;;;;;;4994332;28;20259;-75
2022/05/25 14:44:40;;;;;;;2.03;0.90;;;;;;;;;;4994270;28;20192;-75
2022/05/25 14:47:10;;;;;;;1.70;0.70;;;;;;;;;;4994336;28;20191;-75
2022/05/25 14:49:36;;;;;;;1.63;0.70;;;;;;;;;;4994328;28;20168;-75
2022/05/25 14:52:02;;;;;;;0.70;0.70;;;;;;;;;;4976625;28;20175;-75
2022/05/25 14:54:29;;;;;;;0.73;0.63;;;;;;;;;;4976919;28;20184;-75
2022/05/25 14:56:57;;;;;;;0.70;0.60;;;;;;;;;;4992911;28;20226;-77
2022/05/25 14:59:28;;;;;;;0.75;0.75;;;;;;;;;;4992840;28;20180;-77
2022/05/25 15:01:58;;;;;;;1.92;0.82;;;;;;;;;;4976642;28;20233;-77
2022/05/25 15:04:35;;;;;;;1.23;0.65;;;;;;;;;;4993997;28;20183;-77
2022/05/25 15:07:02;;;;;;;1.55;0.57;;;;;;;;;;4992798;28;20205;-77
2022/05/25 15:09:34;;;;;;;0.68;0.60;;;;;;;;;;4992638;28;20176;-77
2022/05/25 15:12:02;;;;;;;1.95;0.80;;;;;;;;;;4991893;28;20171;-77
2022/05/25 15:20:09;;;;;;;0.75;0.40;;;;;;;;;;4993958;28;20680;-75
2022/05/25 15:22:37;;;;;;;0.57;0.57;;;;;;;;;;4992254;28;20253;-75
2022/05/25 15:25:08;;;;;;;0.50;0.50;;;;;;;;;;4992970;28;20216;-75
2022/05/25 15:27:35;;;;;;;2.03;0.80;;;;;;;;;;4993588;28;20303;-75
2022/05/25 15:30:02;;;;;;;1.08;0.80;;;;;;;;;;4993583;28;20179;-75
2022/05/25 15:32:28;;;;;;;0.82;0.82;;;;;;;;;;4992052;28;20179;-75
2022/05/25 15:34:54;;;;;;;0.57;0.50;;;;;;;;;;4993271;28;20678;-75
2022/05/25 15:37:24;;;;;;;0.50;0.50;;;;;;;;;;4976074;28;20721;-75